LFST

Strasbourg Airport

Airport
ICAO code
LFST
IATA Code
SXB
Summary
ICAO Region
EUR
ICAO Territory
Location

, Alsace

Serving
Strasbourg
Elevation
505 ft
Coordinates
48° 32' 18" N , 7° 37' 42" E
Metar
Observation
LFST 030130Z AUTO 04005KT 9999 OVC007 03/02 Q1018 TEMPO 3000 BR OVC002
Station
Strasbourg
Date/Time
2022-12-03 01:30:00
Wind direction
40°
Wind speed
05 kts
Lowest cloud amount
overcast
Temperature
3°C
Dew point
2°C
Humidity
93%
QNH
1018 hPa
Weather condition
n/a

Runways

Designator Length Width Surface Rops
5/23 2400 45 ASP Yes/Yes

Airport map

Aerial View

SKYbrary Partners:

Safety knowledge contributed by: